sensor_id;sensor_type;location;lat;lon;timestamp;temperature;humidity
9385;DHT22;4732;49.340;10.886;2023-08-20T03:04:39;20.60;99.90
9385;DHT22;4732;49.340;10.886;2023-08-20T03:07:04;20.50;99.90
9385;DHT22;4732;49.340;10.886;2023-08-20T03:09:30;20.40;99.90
9385;DHT22;4732;49.340;10.886;2023-08-20T03:11:55;20.50;99.90
9385;DHT22;4732;49.340;10.886;2023-08-20T03:14:21;21.00;99.90
9385;DHT22;4732;49.340;10.886;2023-08-20T03:16:46;20.70;99.90
9385;DHT22;4732;49.340;10.886;2023-08-20T03:19:14;20.60;99.90
9385;DHT22;4732;49.340;10.886;2023-08-20T03:21:40;20.50;99.90
9385;DHT22;4732;49.340;10.886;2023-08-20T03:24:06;20.40;99.90
9385;DHT22;4732;49.340;10.886;2023-08-20T03:26:32;20.40;99.90
9385;DHT22;4732;49.340;10.886;2023-08-20T03:28:58;20.40;99.90
9385;DHT22;4732;49.340;10.886;2023-08-20T03:31:24;20.50;99.90
9385;DHT22;4732;49.340;10.886;2023-08-20T03:33:50;20.40;99.90
9385;DHT22;4732;49.340;10.886;2023-08-20T03:36:15;20.30;99.90
9385;DHT22;4732;49.340;10.886;2023-08-20T03:38:41;20.00;99.90
9385;DHT22;4732;49.340;10.886;2023-08-20T03:41:06;20.30;99.90
9385;DHT22;4732;49.340;10.886;2023-08-20T03:43:32;20.30;99.90
9385;DHT22;4732;49.340;10.886;2023-08-20T03:45:57;20.30;99.90
9385;DHT22;4732;49.340;10.886;2023-08-20T03:48:23;20.30;99.90
9385;DHT22;4732;49.340;10.886;2023-08-20T03:50:48;20.50;99.90
9385;DHT22;4732;49.340;10.886;2023-08-20T03:53:15;20.20;99.90
9385;DHT22;4732;49.340;10.886;2023-08-20T03:55:40;20.10;99.90
9385;DHT22;4732;49.340;10.886;2023-08-20T03:58:07;20.20;99.90
9385;DHT22;4732;49.340;10.886;2023-08-20T04:00:34;20.10;99.90
9385;DHT22;4732;49.340;10.886;2023-08-20T04:03:00;20.10;99.90
9385;DHT22;4732;49.340;10.886;2023-08-20T04:05:26;19.80;99.90
9385;DHT22;4732;49.340;10.886;2023-08-20T04:07:51;19.80;99.90
9385;DHT22;4732;49.340;10.886;2023-08-20T04:10:17;19.90;99.90
9385;DHT22;4732;49.340;10.886;2023-08-20T04:12:42;19.90;99.90
9385;DHT22;4732;49.340;10.886;2023-08-20T04:15:08;20.00;99.90
9385;DHT22;4732;49.340;10.886;2023-08-20T04:17:34;20.00;99.90
9385;DHT22;4732;49.340;10.886;2023-08-20T04:19:59;19.90;99.90
9385;DHT22;4732;49.340;10.886;2023-08-20T04:22:25;19.90;99.90
9385;DHT22;4732;49.340;10.886;2023-08-20T04:24:50;19.90;99.90
9385;DHT22;4732;49.340;10.886;2023-08-20T04:27:16;19.90;99.90
9385;DHT22;4732;49.340;10.886;2023-08-20T04:29:41;19.90;99.90
9385;DHT22;4732;49.340;10.886;2023-08-20T04:32:07;19.80;99.90
9385;DHT22;4732;49.340;10.886;2023-08-20T04:34:32;19.80;99.90
9385;DHT22;4732;49.340;10.886;2023-08-20T04:36:58;19.90;99.90
9385;DHT22;4732;49.340;10.886;2023-08-20T04:39:24;19.80;99.90
9385;DHT22;4732;49.340;10.886;2023-08-20T04:41:49;19.80;99.90
9385;DHT22;4732;49.340;10.886;2023-08-20T04:44:15;19.80;99.90
9385;DHT22;4732;49.340;10.886;2023-08-20T04:46:40;19.80;99.90
9385;DHT22;4732;49.340;10.886;2023-08-20T04:49:06;19.80;99.90
9385;DHT22;4732;49.340;10.886;2023-08-20T04:51:31;19.80;99.90
9385;DHT22;4732;49.340;10.886;2023-08-20T04:53:57;19.80;99.90
9385;DHT22;4732;49.340;10.886;2023-08-20T04:56:22;19.70;99.90
9385;DHT22;4732;49.340;10.886;2023-08-20T04:58:48;19.80;99.90
9385;DHT22;4732;49.340;10.886;2023-08-20T05:01:13;19.80;99.90
9385;DHT22;4732;49.340;10.886;2023-08-20T05:03:39;19.80;99.90
9385;DHT22;4732;49.340;10.886;2023-08-20T05:06:04;19.90;99.90
9385;DHT22;4732;49.340;10.886;2023-08-20T05:08:30;19.90;99.90
9385;DHT22;4732;49.340;10.886;2023-08-20T05:10:55;19.90;99.90
9385;DHT22;4732;49.340;10.886;2023-08-20T05:13:21;19.80;99.90
9385;DHT22;4732;49.340;10.886;2023-08-20T05:15:46;19.80;99.90
9385;DHT22;4732;49.340;10.886;2023-08-20T05:18:12;19.90;99.90
9385;DHT22;4732;49.340;10.886;2023-08-20T05:20:39;20.00;99.90
9385;DHT22;4732;49.340;10.886;2023-08-20T05:23:04;20.10;99.90
9385;DHT22;4732;49.340;10.886;2023-08-20T05:25:31;20.30;99.90
9385;DHT22;4732;49.340;10.886;2023-08-20T05:27:56;20.40;99.90
9385;DHT22;4732;49.340;10.886;2023-08-20T05:30:22;20.50;99.90
9385;DHT22;4732;49.340;10.886;2023-08-20T05:32:47;20.60;99.90
9385;DHT22;4732;49.340;10.886;2023-08-20T05:35:13;20.70;99.90
9385;DHT22;4732;49.340;10.886;2023-08-20T05:37:38;20.70;99.90
9385;DHT22;4732;49.340;10.886;2023-08-20T05:40:04;20.70;99.90
9385;DHT22;4732;49.340;10.886;2023-08-20T05:42:30;20.80;99.90
9385;DHT22;4732;49.340;10.886;2023-08-20T05:44:55;20.90;99.90
9385;DHT22;4732;49.340;10.886;2023-08-20T05:47:21;21.00;99.90
9385;DHT22;4732;49.340;10.886;2023-08-20T05:49:46;21.00;99.90
9385;DHT22;4732;49.340;10.886;2023-08-20T05:52:12;21.10;99.90
9385;DHT22;4732;49.340;10.886;2023-08-20T05:54:37;21.10;99.90
9385;DHT22;4732;49.340;10.886;2023-08-20T05:57:03;21.30;99.90
9385;DHT22;4732;49.340;10.886;2023-08-20T05:59:28;21.40;99.90
9385;DHT22;4732;49.340;10.886;2023-08-20T06:01:54;21.40;99.90
9385;DHT22;4732;49.340;10.886;2023-08-20T06:04:20;21.50;99.90
9385;DHT22;4732;49.340;10.886;2023-08-20T06:06:45;21.70;99.90
9385;DHT22;4732;49.340;10.886;2023-08-20T06:09:11;21.80;99.90
9385;DHT22;4732;49.340;10.886;2023-08-20T06:11:36;21.90;99.90
9385;DHT22;4732;49.340;10.886;2023-08-20T06:14:02;21.80;99.90
9385;DHT22;4732;49.340;10.886;2023-08-20T06:16:28;22.10;99.90
9385;DHT22;4732;49.340;10.886;2023-08-20T06:18:53;22.20;99.90
9385;DHT22;4732;49.340;10.886;2023-08-20T06:21:19;22.30;99.90
9385;DHT22;4732;49.340;10.886;2023-08-20T06:23:44;22.40;99.90
9385;DHT22;4732;49.340;10.886;2023-08-20T06:26:10;22.50;99.90
9385;DHT22;4732;49.340;10.886;2023-08-20T06:28:35;22.60;99.90
9385;DHT22;4732;49.340;10.886;2023-08-20T06:31:01;22.70;99.90
9385;DHT22;4732;49.340;10.886;2023-08-20T06:33:26;22.90;99.90
9385;DHT22;4732;49.340;10.886;2023-08-20T06:35:52;22.90;99.90
9385;DHT22;4732;49.340;10.886;2023-08-20T06:38:17;23.10;99.90
9385;DHT22;4732;49.340;10.886;2023-08-20T06:40:43;23.20;99.90
9385;DHT22;4732;49.340;10.886;2023-08-20T06:43:08;23.40;99.90
9385;DHT22;4732;49.340;10.886;2023-08-20T06:45:34;23.50;99.90
9385;DHT22;4732;49.340;10.886;2023-08-20T06:47:59;23.60;99.90
9385;DHT22;4732;49.340;10.886;2023-08-20T06:50:25;23.50;99.90
9385;DHT22;4732;49.340;10.886;2023-08-20T06:52:50;23.90;99.90
9385;DHT22;4732;49.340;10.886;2023-08-20T06:55:16;24.00;99.90
9385;DHT22;4732;49.340;10.886;2023-08-20T06:57:41;24.20;99.90
9385;DHT22;4732;49.340;10.886;2023-08-20T07:00:07;24.30;99.90
9385;DHT22;4732;49.340;10.886;2023-08-20T07:02:33;24.40;99.90
9385;DHT22;4732;49.340;10.886;2023-08-20T07:04:58;24.60;99.90
9385;DHT22;4732;49.340;10.886;2023-08-20T07:07:24;24.70;99.90
9385;DHT22;4732;49.340;10.886;2023-08-20T07:09:53;24.80;99.90
9385;DHT22;4732;49.340;10.886;2023-08-20T07:12:18;24.90;99.90
9385;DHT22;4732;49.340;10.886;2023-08-20T07:14:43;25.00;99.90
9385;DHT22;4732;49.340;10.886;2023-08-20T07:17:09;25.20;99.90
9385;DHT22;4732;49.340;10.886;2023-08-20T07:19:36;25.30;99.90
9385;DHT22;4732;49.340;10.886;2023-08-20T07:22:02;25.40;99.90
9385;DHT22;4732;49.340;10.886;2023-08-20T07:24:27;25.50;99.90
9385;DHT22;4732;49.340;10.886;2023-08-20T07:26:54;25.60;99.90
9385;DHT22;4732;49.340;10.886;2023-08-20T07:29:26;25.70;99.90
9385;DHT22;4732;49.340;10.886;2023-08-20T07:31:55;25.80;99.90
9385;DHT22;4732;49.340;10.886;2023-08-20T07:34:21;26.00;99.90
9385;DHT22;4732;49.340;10.886;2023-08-20T07:36:47;26.00;99.90
9385;DHT22;4732;49.340;10.886;2023-08-20T07:39:12;26.10;99.90
9385;DHT22;4732;49.340;10.886;2023-08-20T07:41:38;26.20;99.90
9385;DHT22;4732;49.340;10.886;2023-08-20T07:44:03;26.30;99.90
9385;DHT22;4732;49.340;10.886;2023-08-20T07:46:29;26.40;99.90
9385;DHT22;4732;49.340;10.886;2023-08-20T07:48:55;26.50;99.90
9385;DHT22;4732;49.340;10.886;2023-08-20T07:51:20;26.50;99.90
9385;DHT22;4732;49.340;10.886;2023-08-20T07:53:46;26.60;99.90
9385;DHT22;4732;49.340;10.886;2023-08-20T07:56:11;26.70;99.90
9385;DHT22;4732;49.340;10.886;2023-08-20T07:58:37;26.70;99.90
9385;DHT22;4732;49.340;10.886;2023-08-20T08:01:02;26.80;99.90
9385;DHT22;4732;49.340;10.886;2023-08-20T08:03:28;26.90;99.90
9385;DHT22;4732;49.340;10.886;2023-08-20T08:05:54;27.00;99.90
9385;DHT22;4732;49.340;10.886;2023-08-20T08:08:20;27.10;99.90
9385;DHT22;4732;49.340;10.886;2023-08-20T08:10:46;27.30;99.90
9385;DHT22;4732;49.340;10.886;2023-08-20T08:13:13;27.30;99.90
9385;DHT22;4732;49.340;10.886;2023-08-20T08:15:39;27.40;99.90
9385;DHT22;4732;49.340;10.886;2023-08-20T08:18:06;27.50;99.90
9385;DHT22;4732;49.340;10.886;2023-08-20T08:20:32;27.60;99.90
9385;DHT22;4732;49.340;10.886;2023-08-20T08:22:57;27.70;99.90
9385;DHT22;4732;49.340;10.886;2023-08-20T08:25:23;27.70;99.90
9385;DHT22;4732;49.340;10.886;2023-08-20T08:27:48;27.80;99.90
9385;DHT22;4732;49.340;10.886;2023-08-20T08:30:14;27.70;99.90
9385;DHT22;4732;49.340;10.886;2023-08-20T08:32:40;27.80;99.90
9385;DHT22;4732;49.340;10.886;2023-08-20T08:35:06;28.00;99.90
9385;DHT22;4732;49.340;10.886;2023-08-20T08:37:32;28.20;99.90
9385;DHT22;4732;49.340;10.886;2023-08-20T08:39:57;28.30;99.90
9385;DHT22;4732;49.340;10.886;2023-08-20T08:42:23;28.50;99.90
9385;DHT22;4732;49.340;10.886;2023-08-20T08:44:52;28.50;99.90
9385;DHT22;4732;49.340;10.886;2023-08-20T08:47:18;28.60;99.90
9385;DHT22;4732;49.340;10.886;2023-08-20T08:49:46;28.70;99.90
9385;DHT22;4732;49.340;10.886;2023-08-20T08:52:14;28.80;99.90
9385;DHT22;4732;49.340;10.886;2023-08-20T08:54:40;29.00;99.90
9385;DHT22;4732;49.340;10.886;2023-08-20T08:57:06;29.00;99.90
9385;DHT22;4732;49.340;10.886;2023-08-20T08:59:32;29.10;99.90
9385;DHT22;4732;49.340;10.886;2023-08-20T09:01:57;29.20;99.90
9385;DHT22;4732;49.340;10.886;2023-08-20T09:04:23;29.30;99.90
9385;DHT22;4732;49.340;10.886;2023-08-20T09:06:50;29.40;99.90
9385;DHT22;4732;49.340;10.886;2023-08-20T09:09:17;29.40;99.90
9385;DHT22;4732;49.340;10.886;2023-08-20T09:11:43;29.40;99.90
9385;DHT22;4732;49.340;10.886;2023-08-20T09:14:30;29.60;99.90
9385;DHT22;4732;49.340;10.886;2023-08-20T09:19:22;30.00;99.90
9385;DHT22;4732;49.340;10.886;2023-08-20T09:21:47;30.00;99.90
9385;DHT22;4732;49.340;10.886;2023-08-20T09:24:14;30.20;99.90
9385;DHT22;4732;49.340;10.886;2023-08-20T09:26:39;30.20;99.90
9385;DHT22;4732;49.340;10.886;2023-08-20T09:29:05;30.20;99.90
9385;DHT22;4732;49.340;10.886;2023-08-20T09:31:38;30.40;99.90
9385;DHT22;4732;49.340;10.886;2023-08-20T09:34:04;30.70;99.90
9385;DHT22;4732;49.340;10.886;2023-08-20T09:36:31;30.60;99.90
9385;DHT22;4732;49.340;10.886;2023-08-20T09:38:57;30.70;99.90
9385;DHT22;4732;49.340;10.886;2023-08-20T09:41:23;30.80;99.90
9385;DHT22;4732;49.340;10.886;2023-08-20T09:43:55;30.80;99.90
9385;DHT22;4732;49.340;10.886;2023-08-20T09:46:24;31.10;99.90
9385;DHT22;4732;49.340;10.886;2023-08-20T09:48:51;31.20;99.90
9385;DHT22;4732;49.340;10.886;2023-08-20T09:51:25;31.40;99.90
9385;DHT22;4732;49.340;10.886;2023-08-20T09:54:00;31.50;99.90
9385;DHT22;4732;49.340;10.886;2023-08-20T09:56:28;31.60;99.90
9385;DHT22;4732;49.340;10.886;2023-08-20T09:58:55;31.60;99.90
9385;DHT22;4732;49.340;10.886;2023-08-20T10:01:22;31.80;99.90
9385;DHT22;4732;49.340;10.886;2023-08-20T10:03:48;31.70;99.90
9385;DHT22;4732;49.340;10.886;2023-08-20T10:06:14;31.60;99.90
9385;DHT22;4732;49.340;10.886;2023-08-20T10:08:39;31.80;99.90
9385;DHT22;4732;49.340;10.886;2023-08-20T10:11:05;31.70;99.90
9385;DHT22;4732;49.340;10.886;2023-08-20T10:13:30;31.60;99.90
9385;DHT22;4732;49.340;10.886;2023-08-20T10:15:57;31.70;99.90
9385;DHT22;4732;49.340;10.886;2023-08-20T10:18:23;31.60;99.90
9385;DHT22;4732;49.340;10.886;2023-08-20T10:20:52;31.60;99.90
9385;DHT22;4732;49.340;10.886;2023-08-20T10:23:21;31.60;99.90
9385;DHT22;4732;49.340;10.886;2023-08-20T10:25:51;31.70;99.90
9385;DHT22;4732;49.340;10.886;2023-08-20T10:28:26;31.70;99.90
9385;DHT22;4732;49.340;10.886;2023-08-20T10:31:12;31.80;99.90
9385;DHT22;4732;49.340;10.886;2023-08-20T10:33:40;32.00;99.90
9385;DHT22;4732;49.340;10.886;2023-08-20T10:36:18;32.10;99.90
9385;DHT22;4732;49.340;10.886;2023-08-20T10:38:47;31.90;99.90
9385;DHT22;4732;49.340;10.886;2023-08-20T10:41:12;31.90;99.90
9385;DHT22;4732;49.340;10.886;2023-08-20T10:43:46;32.00;99.90
9385;DHT22;4732;49.340;10.886;2023-08-20T10:46:22;32.00;99.90
9385;DHT22;4732;49.340;10.886;2023-08-20T10:48:56;32.30;99.90
9385;DHT22;4732;49.340;10.886;2023-08-20T10:51:31;32.10;99.90
9385;DHT22;4732;49.340;10.886;2023-08-20T10:56:54;31.80;99.90
9385;DHT22;4732;49.340;10.886;2023-08-20T10:59:26;31.90;99.90
9385;DHT22;4732;49.340;10.886;2023-08-20T11:01:54;31.80;99.90
9385;DHT22;4732;49.340;10.886;2023-08-20T11:04:22;31.80;99.90
9385;DHT22;4732;49.340;10.886;2023-08-20T11:06:53;32.00;99.90
9385;DHT22;4732;49.340;10.886;2023-08-20T11:09:22;32.40;99.90
9385;DHT22;4732;49.340;10.886;2023-08-20T11:11:49;32.70;99.90
9385;DHT22;4732;49.340;10.886;2023-08-20T11:14:15;33.10;99.90
9385;DHT22;4732;49.340;10.886;2023-08-20T11:16:45;33.50;99.90
9385;DHT22;4732;49.340;10.886;2023-08-20T11:19:11;33.20;99.90
9385;DHT22;4732;49.340;10.886;2023-08-20T11:24:04;33.70;99.90
9385;DHT22;4732;49.340;10.886;2023-08-20T11:26:30;33.80;99.90
9385;DHT22;4732;49.340;10.886;2023-08-20T11:28:56;33.90;99.90
9385;DHT22;4732;49.340;10.886;2023-08-20T11:31:22;34.20;99.90
9385;DHT22;4732;49.340;10.886;2023-08-20T11:33:49;34.20;99.00
9385;DHT22;4732;49.340;10.886;2023-08-20T11:36:15;33.90;99.90
9385;DHT22;4732;49.340;10.886;2023-08-20T11:38:42;33.80;99.90
9385;DHT22;4732;49.340;10.886;2023-08-20T11:41:08;34.00;99.90
9385;DHT22;4732;49.340;10.886;2023-08-20T11:43:34;33.70;99.00
9385;DHT22;4732;49.340;10.886;2023-08-20T11:46:00;33.70;99.40
9385;DHT22;4732;49.340;10.886;2023-08-20T11:48:25;33.60;99.90
9385;DHT22;4732;49.340;10.886;2023-08-20T11:50:51;33.90;99.90
9385;DHT22;4732;49.340;10.886;2023-08-20T11:53:21;34.10;99.90
9385;DHT22;4732;49.340;10.886;2023-08-20T11:55:48;34.40;99.90
9385;DHT22;4732;49.340;10.886;2023-08-20T11:58:14;34.40;98.90
9385;DHT22;4732;49.340;10.886;2023-08-20T12:00:40;34.30;99.10
9385;DHT22;4732;49.340;10.886;2023-08-20T12:03:07;34.20;98.60
9385;DHT22;4732;49.340;10.886;2023-08-20T12:05:33;34.50;99.90
9385;DHT22;4732;49.340;10.886;2023-08-20T12:08:03;34.60;99.00
9385;DHT22;4732;49.340;10.886;2023-08-20T12:10:31;34.60;98.90
9385;DHT22;4732;49.340;10.886;2023-08-20T12:12:57;34.70;98.80
9385;DHT22;4732;49.340;10.886;2023-08-20T12:15:24;34.60;98.50
9385;DHT22;4732;49.340;10.886;2023-08-20T12:18:02;34.80;98.00
9385;DHT22;4732;49.340;10.886;2023-08-20T12:20:32;35.00;97.70
9385;DHT22;4732;49.340;10.886;2023-08-20T12:23:00;34.90;95.50
9385;DHT22;4732;49.340;10.886;2023-08-20T12:25:27;35.20;98.70
9385;DHT22;4732;49.340;10.886;2023-08-20T12:27:52;35.50;97.80
9385;DHT22;4732;49.340;10.886;2023-08-20T12:30:18;35.50;97.20
9385;DHT22;4732;49.340;10.886;2023-08-20T12:32:43;35.60;97.60
9385;DHT22;4732;49.340;10.886;2023-08-20T12:35:09;35.70;96.50
9385;DHT22;4732;49.340;10.886;2023-08-20T12:37:34;35.60;96.20
9385;DHT22;4732;49.340;10.886;2023-08-20T12:40:00;35.60;96.60
9385;DHT22;4732;49.340;10.886;2023-08-20T12:42:25;35.80;96.90
9385;DHT22;4732;49.340;10.886;2023-08-20T12:44:51;35.80;95.80
9385;DHT22;4732;49.340;10.886;2023-08-20T12:47:16;35.80;96.20
9385;DHT22;4732;49.340;10.886;2023-08-20T12:49:42;35.70;95.60
9385;DHT22;4732;49.340;10.886;2023-08-20T12:52:07;35.40;95.20
9385;DHT22;4732;49.340;10.886;2023-08-20T12:54:33;35.40;95.30
9385;DHT22;4732;49.340;10.886;2023-08-20T12:56:59;35.60;96.20
9385;DHT22;4732;49.340;10.886;2023-08-20T12:59:24;35.80;95.10
9385;DHT22;4732;49.340;10.886;2023-08-20T13:01:50;35.70;95.40
9385;DHT22;4732;49.340;10.886;2023-08-20T13:04:15;35.80;94.60
9385;DHT22;4732;49.340;10.886;2023-08-20T13:06:41;36.10;96.20
9385;DHT22;4732;49.340;10.886;2023-08-20T13:09:07;36.20;95.20
9385;DHT22;4732;49.340;10.886;2023-08-20T13:11:34;36.40;95.30
9385;DHT22;4732;49.340;10.886;2023-08-20T13:14:01;36.40;94.60
9385;DHT22;4732;49.340;10.886;2023-08-20T13:16:27;36.30;95.10
9385;DHT22;4732;49.340;10.886;2023-08-20T13:18:52;36.40;94.20
9385;DHT22;4732;49.340;10.886;2023-08-20T13:21:18;36.30;94.70
9385;DHT22;4732;49.340;10.886;2023-08-20T13:23:43;36.50;94.70
9385;DHT22;4732;49.340;10.886;2023-08-20T13:26:09;36.60;95.90
9385;DHT22;4732;49.340;10.886;2023-08-20T13:28:35;36.80;95.70
9385;DHT22;4732;49.340;10.886;2023-08-20T13:31:01;36.90;96.10
9385;DHT22;4732;49.340;10.886;2023-08-20T13:33:26;36.70;94.70
9385;DHT22;4732;49.340;10.886;2023-08-20T13:35:52;36.80;95.30
9385;DHT22;4732;49.340;10.886;2023-08-20T13:38:17;37.00;95.10
9385;DHT22;4732;49.340;10.886;2023-08-20T13:40:45;37.10;94.80
9385;DHT22;4732;49.340;10.886;2023-08-20T13:43:11;37.20;95.40
9385;DHT22;4732;49.340;10.886;2023-08-20T13:45:36;37.10;94.70
9385;DHT22;4732;49.340;10.886;2023-08-20T13:48:02;37.20;95.00
9385;DHT22;4732;49.340;10.886;2023-08-20T13:50:27;37.10;93.50
9385;DHT22;4732;49.340;10.886;2023-08-20T13:52:53;37.10;93.40
9385;DHT22;4732;49.340;10.886;2023-08-20T13:55:18;37.30;94.10
9385;DHT22;4732;49.340;10.886;2023-08-20T13:57:44;37.40;94.90
9385;DHT22;4732;49.340;10.886;2023-08-20T14:00:10;37.40;92.60
9385;DHT22;4732;49.340;10.886;2023-08-20T14:02:38;37.30;92.30
9385;DHT22;4732;49.340;10.886;2023-08-20T14:05:04;37.00;90.80
9385;DHT22;4732;49.340;10.886;2023-08-20T14:07:30;37.00;91.50
9385;DHT22;4732;49.340;10.886;2023-08-20T14:09:55;37.10;91.80
9385;DHT22;4732;49.340;10.886;2023-08-20T14:12:21;37.30;92.00
9385;DHT22;4732;49.340;10.886;2023-08-20T14:14:46;37.10;93.00
9385;DHT22;4732;49.340;10.886;2023-08-20T14:17:12;37.10;92.40
9385;DHT22;4732;49.340;10.886;2023-08-20T14:19:37;37.00;92.10
9385;DHT22;4732;49.340;10.886;2023-08-20T14:22:03;37.20;91.90
9385;DHT22;4732;49.340;10.886;2023-08-20T14:24:28;37.20;92.30
9385;DHT22;4732;49.340;10.886;2023-08-20T14:26:54;36.70;91.90
9385;DHT22;4732;49.340;10.886;2023-08-20T14:29:19;36.70;93.70
9385;DHT22;4732;49.340;10.886;2023-08-20T14:31:45;37.10;93.10
9385;DHT22;4732;49.340;10.886;2023-08-20T14:34:10;37.30;93.00
9385;DHT22;4732;49.340;10.886;2023-08-20T14:36:36;37.60;94.00
9385;DHT22;4732;49.340;10.886;2023-08-20T14:39:01;37.60;91.50
9385;DHT22;4732;49.340;10.886;2023-08-20T14:41:27;37.70;92.50
9385;DHT22;4732;49.340;10.886;2023-08-20T14:43:53;37.30;91.10
9385;DHT22;4732;49.340;10.886;2023-08-20T14:46:18;37.20;92.10
9385;DHT22;4732;49.340;10.886;2023-08-20T14:48:44;37.40;91.90
9385;DHT22;4732;49.340;10.886;2023-08-20T14:51:10;37.40;91.10
9385;DHT22;4732;49.340;10.886;2023-08-20T14:53:35;37.60;90.70
9385;DHT22;4732;49.340;10.886;2023-08-20T14:56:01;37.70;90.30
9385;DHT22;4732;49.340;10.886;2023-08-20T14:58:28;37.90;91.90
9385;DHT22;4732;49.340;10.886;2023-08-20T15:00:53;38.00;90.20
9385;DHT22;4732;49.340;10.886;2023-08-20T15:03:19;38.10;90.80
9385;DHT22;4732;49.340;10.886;2023-08-20T15:05:45;38.00;91.20
9385;DHT22;4732;49.340;10.886;2023-08-20T15:08:10;38.30;91.40
9385;DHT22;4732;49.340;10.886;2023-08-20T15:10:36;37.90;88.70
9385;DHT22;4732;49.340;10.886;2023-08-20T15:13:01;37.90;90.10
9385;DHT22;4732;49.340;10.886;2023-08-20T15:15:27;38.20;90.00
9385;DHT22;4732;49.340;10.886;2023-08-20T15:17:55;38.20;90.30
9385;DHT22;4732;49.340;10.886;2023-08-20T15:20:21;38.10;90.80
9385;DHT22;4732;49.340;10.886;2023-08-20T15:22:46;37.20;90.50
9385;DHT22;4732;49.340;10.886;2023-08-20T15:25:12;38.00;87.70
9385;DHT22;4732;49.340;10.886;2023-08-20T15:27:38;37.70;89.10
9385;DHT22;4732;49.340;10.886;2023-08-20T15:30:04;37.70;88.80
9385;DHT22;4732;49.340;10.886;2023-08-20T15:32:31;37.50;85.30
9385;DHT22;4732;49.340;10.886;2023-08-20T15:34:56;37.50;87.80
9385;DHT22;4732;49.340;10.886;2023-08-20T15:37:22;37.40;86.20
9385;DHT22;4732;49.340;10.886;2023-08-20T15:39:47;37.80;87.80
9385;DHT22;4732;49.340;10.886;2023-08-20T15:42:13;37.80;86.90
9385;DHT22;4732;49.340;10.886;2023-08-20T15:44:39;37.80;88.60
9385;DHT22;4732;49.340;10.886;2023-08-20T15:47:05;37.80;86.80
9385;DHT22;4732;49.340;10.886;2023-08-20T15:49:32;37.90;90.70
9385;DHT22;4732;49.340;10.886;2023-08-20T15:51:57;38.00;88.90
9385;DHT22;4732;49.340;10.886;2023-08-20T15:54:23;37.90;89.30
9385;DHT22;4732;49.340;10.886;2023-08-20T15:56:50;37.70;90.20
9385;DHT22;4732;49.340;10.886;2023-08-20T15:59:16;37.80;91.00
9385;DHT22;4732;49.340;10.886;2023-08-20T16:01:42;37.80;91.10
9385;DHT22;4732;49.340;10.886;2023-08-20T16:04:07;38.30;92.10
9385;DHT22;4732;49.340;10.886;2023-08-20T16:06:33;37.80;88.00
9385;DHT22;4732;49.340;10.886;2023-08-20T16:08:58;37.50;87.00
9385;DHT22;4732;49.340;10.886;2023-08-20T16:11:24;37.50;87.90
9385;DHT22;4732;49.340;10.886;2023-08-20T16:13:50;37.10;85.20
9385;DHT22;4732;49.340;10.886;2023-08-20T16:16:15;37.00;84.90
9385;DHT22;4732;49.340;10.886;2023-08-20T16:18:42;36.60;86.60
9385;DHT22;4732;49.340;10.886;2023-08-20T16:21:08;36.30;89.10
9385;DHT22;4732;49.340;10.886;2023-08-20T16:23:34;36.10;90.60
9385;DHT22;4732;49.340;10.886;2023-08-20T16:25:59;35.80;92.40
9385;DHT22;4732;49.340;10.886;2023-08-20T16:28:25;35.30;91.00
9385;DHT22;4732;49.340;10.886;2023-08-20T16:30:52;35.10;91.50
9385;DHT22;4732;49.340;10.886;2023-08-20T16:33:18;34.90;95.10
9385;DHT22;4732;49.340;10.886;2023-08-20T16:35:45;34.70;95.50
9385;DHT22;4732;49.340;10.886;2023-08-20T16:38:11;34.40;96.00
9385;DHT22;4732;49.340;10.886;2023-08-20T16:40:36;34.30;96.80
9385;DHT22;4732;49.340;10.886;2023-08-20T16:43:02;34.10;95.60
9385;DHT22;4732;49.340;10.886;2023-08-20T16:45:28;33.90;95.90
9385;DHT22;4732;49.340;10.886;2023-08-20T16:47:53;33.70;96.20
9385;DHT22;4732;49.340;10.886;2023-08-20T16:50:19;33.60;94.40
9385;DHT22;4732;49.340;10.886;2023-08-20T16:52:44;33.40;95.10
9385;DHT22;4732;49.340;10.886;2023-08-20T16:55:10;33.30;95.70
9385;DHT22;4732;49.340;10.886;2023-08-20T16:57:35;33.20;97.20
9385;DHT22;4732;49.340;10.886;2023-08-20T17:00:01;33.10;98.20
9385;DHT22;4732;49.340;10.886;2023-08-20T17:02:26;32.70;99.10
9385;DHT22;4732;49.340;10.886;2023-08-20T17:04:52;32.50;98.90
9385;DHT22;4732;49.340;10.886;2023-08-20T17:07:19;32.60;99.40
9385;DHT22;4732;49.340;10.886;2023-08-20T17:09:45;33.00;99.60
9385;DHT22;4732;49.340;10.886;2023-08-20T17:12:10;33.10;99.90
9385;DHT22;4732;49.340;10.886;2023-08-20T17:14:36;32.10;99.30
9385;DHT22;4732;49.340;10.886;2023-08-20T17:17:01;32.80;98.60
9385;DHT22;4732;49.340;10.886;2023-08-20T17:19:27;32.20;99.10
9385;DHT22;4732;49.340;10.886;2023-08-20T17:21:53;32.30;99.90
9385;DHT22;4732;49.340;10.886;2023-08-20T17:24:18;32.70;99.90
9385;DHT22;4732;49.340;10.886;2023-08-20T17:26:44;32.30;99.90
9385;DHT22;4732;49.340;10.886;2023-08-20T17:29:10;32.30;99.90
9385;DHT22;4732;49.340;10.886;2023-08-20T17:31:36;32.10;99.90
9385;DHT22;4732;49.340;10.886;2023-08-20T17:34:02;31.90;99.90
9385;DHT22;4732;49.340;10.886;2023-08-20T17:36:32;31.70;99.90
9385;DHT22;4732;49.340;10.886;2023-08-20T17:38:57;31.80;99.90
9385;DHT22;4732;49.340;10.886;2023-08-20T17:41:23;31.60;99.90
9385;DHT22;4732;49.340;10.886;2023-08-20T17:46:14;31.10;99.90
9385;DHT22;4732;49.340;10.886;2023-08-20T17:48:40;31.30;99.90
9385;DHT22;4732;49.340;10.886;2023-08-20T17:51:06;30.70;99.90
9385;DHT22;4732;49.340;10.886;2023-08-20T17:53:31;31.10;99.90
9385;DHT22;4732;49.340;10.886;2023-08-20T17:55:57;30.90;99.90
9385;DHT22;4732;49.340;10.886;2023-08-20T17:58:22;31.30;99.90
9385;DHT22;4732;49.340;10.886;2023-08-20T18:00:48;30.70;99.90
9385;DHT22;4732;49.340;10.886;2023-08-20T18:03:14;30.50;99.90
9385;DHT22;4732;49.340;10.886;2023-08-20T18:05:43;30.20;99.90
9385;DHT22;4732;49.340;10.886;2023-08-20T18:08:10;30.20;99.90
9385;DHT22;4732;49.340;10.886;2023-08-20T18:10:36;30.50;99.90
9385;DHT22;4732;49.340;10.886;2023-08-20T18:13:02;30.30;99.90
9385;DHT22;4732;49.340;10.886;2023-08-20T18:15:29;29.90;99.90
9385;DHT22;4732;49.340;10.886;2023-08-20T18:17:54;29.70;99.90
9385;DHT22;4732;49.340;10.886;2023-08-20T18:20:20;29.70;99.90
9385;DHT22;4732;49.340;10.886;2023-08-20T18:22:46;29.70;99.90
9385;DHT22;4732;49.340;10.886;2023-08-20T18:25:12;29.60;99.90
9385;DHT22;4732;49.340;10.886;2023-08-20T18:27:37;29.10;99.90
9385;DHT22;4732;49.340;10.886;2023-08-20T18:30:03;29.40;99.90
9385;DHT22;4732;49.340;10.886;2023-08-20T18:32:30;28.50;99.90
9385;DHT22;4732;49.340;10.886;2023-08-20T18:34:58;28.20;99.90
9385;DHT22;4732;49.340;10.886;2023-08-20T18:42:16;27.70;99.90
9385;DHT22;4732;49.340;10.886;2023-08-20T18:44:41;27.50;99.90
9385;DHT22;4732;49.340;10.886;2023-08-20T18:47:07;27.30;99.90
9385;DHT22;4732;49.340;10.886;2023-08-20T18:49:33;27.40;99.90
9385;DHT22;4732;49.340;10.886;2023-08-20T18:51:59;27.40;99.90
9385;DHT22;4732;49.340;10.886;2023-08-20T18:54:25;27.40;99.90
9385;DHT22;4732;49.340;10.886;2023-08-20T18:56:50;27.20;99.90